createdAt,value
2023-12-11T00:00:45.446Z,96.14
2023-12-11T00:01:45.484Z,96.59
2023-12-11T00:02:47.832Z,96.80
2023-12-11T00:03:45.355Z,96.48
2023-12-11T00:04:45.335Z,96.48
2023-12-11T00:05:45.341Z,96.80
2023-12-11T00:06:45.324Z,96.90
2023-12-11T00:07:45.301Z,97.00
2023-12-11T00:08:45.297Z,96.90
2023-12-11T00:09:45.309Z,96.94
2023-12-11T00:10:45.275Z,97.15
2023-12-11T00:11:45.284Z,97.36
2023-12-11T00:12:45.265Z,97.45
2023-12-11T00:13:45.238Z,97.56
2023-12-11T00:14:45.232Z,97.97
2023-12-11T00:15:45.238Z,97.87
2023-12-11T00:16:45.246Z,97.77
2023-12-11T00:17:45.281Z,97.36
2023-12-11T00:18:45.382Z,97.56
2023-12-11T00:19:45.207Z,97.66
2023-12-11T00:20:45.173Z,97.66
2023-12-11T00:21:45.172Z,97.91
2023-12-11T00:22:45.172Z,97.91
2023-12-11T00:23:45.136Z,98.02
2023-12-11T00:24:45.162Z,98.02
2023-12-11T00:25:45.113Z,98.33
2023-12-11T00:26:45.135Z,98.33
2023-12-11T00:27:45.136Z,98.43
2023-12-11T00:28:45.090Z,98.33
2023-12-11T00:29:45.085Z,98.74
2023-12-11T00:30:45.091Z,98.94
2023-12-11T00:31:45.067Z,98.84
2023-12-11T00:32:45.106Z,98.84
2023-12-11T00:33:45.143Z,98.43
2023-12-11T00:34:45.137Z,98.12
2023-12-11T00:35:45.013Z,98.02
2023-12-11T00:36:45.051Z,98.12
2023-12-11T00:37:44.995Z,98.37
2023-12-11T00:38:44.991Z,98.37
2023-12-11T00:39:45.042Z,98.58
2023-12-11T00:40:44.963Z,99.35
2023-12-11T00:41:44.991Z,99.30
2023-12-11T00:42:44.982Z,98.94
2023-12-11T00:43:46.599Z,99.09
2023-12-11T00:44:44.929Z,99.19
2023-12-11T00:45:44.927Z,99.40
2023-12-11T00:46:44.942Z,99.25
2023-12-11T00:47:45.010Z,99.19
2023-12-11T00:48:45.060Z,99.35
2023-12-11T00:49:44.958Z,99.25
2023-12-11T00:50:44.883Z,99.05
2023-12-11T00:51:44.922Z,99.35
2023-12-11T00:52:44.884Z,99.05
2023-12-11T00:53:44.850Z,99.25
2023-12-11T00:54:44.872Z,99.15
2023-12-11T00:55:44.811Z,98.94
2023-12-11T00:56:44.816Z,98.53
2023-12-11T00:57:44.801Z,98.63
2023-12-11T00:58:44.815Z,98.53
2023-12-11T00:59:44.826Z,98.53
2023-12-11T01:00:44.796Z,98.33
2023-12-11T01:01:44.832Z,98.43
2023-12-11T01:02:44.746Z,98.53
2023-12-11T01:03:44.919Z,98.63
2023-12-11T01:04:44.795Z,98.63
2023-12-11T01:05:44.737Z,98.53
2023-12-11T01:06:44.776Z,98.33
2023-12-11T01:07:44.682Z,98.28
2023-12-11T01:08:44.694Z,98.12
2023-12-11T01:09:44.683Z,97.91
2023-12-11T01:10:44.667Z,98.02
2023-12-11T01:11:44.660Z,97.91
2023-12-11T01:12:44.683Z,97.91
2023-12-11T01:13:44.623Z,97.81
2023-12-11T01:14:44.624Z,97.71
2023-12-11T01:15:44.615Z,98.33
2023-12-11T01:16:44.617Z,98.43
2023-12-11T01:17:44.624Z,98.53
2023-12-11T01:18:44.651Z,98.94
2023-12-11T01:19:44.872Z,98.94
2023-12-11T01:20:44.559Z,98.74
2023-12-11T01:21:44.595Z,98.94
2023-12-11T01:22:44.554Z,98.63
2023-12-11T01:23:44.533Z,98.63
2023-12-11T01:24:44.545Z,98.79
2023-12-11T01:25:44.524Z,98.69
2023-12-11T01:26:44.504Z,98.49
2023-12-11T01:27:44.497Z,98.28
2023-12-11T01:28:44.496Z,98.18
2023-12-11T01:29:44.494Z,97.97
2023-12-11T01:30:44.468Z,97.97
2023-12-11T01:31:44.458Z,97.87
2023-12-11T01:32:44.461Z,97.87
2023-12-11T01:33:44.470Z,97.66
2023-12-11T01:34:44.489Z,97.66
2023-12-11T01:35:44.405Z,97.77
2023-12-11T01:36:44.454Z,97.87
2023-12-11T01:37:44.379Z,97.97
2023-12-11T01:38:44.364Z,98.07
2023-12-11T01:39:44.395Z,97.87
2023-12-11T01:40:44.353Z,98.18
2023-12-11T01:41:44.354Z,97.97
2023-12-11T01:42:44.363Z,97.66
2023-12-11T01:43:44.369Z,97.56
2023-12-11T01:44:44.381Z,97.66
2023-12-11T01:45:44.332Z,97.87
2023-12-11T01:46:44.321Z,97.97
2023-12-11T01:47:44.336Z,98.07
2023-12-11T01:48:44.435Z,97.97
2023-12-11T01:49:44.286Z,97.77
2023-12-11T01:50:44.262Z,97.45
2023-12-11T01:51:44.282Z,97.25
2023-12-11T01:52:44.234Z,96.94
2023-12-11T01:53:44.216Z,97.05
2023-12-11T01:54:44.216Z,96.73
2023-12-11T01:55:44.196Z,96.53
2023-12-11T01:56:44.241Z,96.73
2023-12-11T01:57:44.199Z,96.73
2023-12-11T01:58:44.175Z,96.84
2023-12-11T01:59:46.782Z,96.73
2023-12-11T02:00:44.211Z,96.94
2023-12-11T02:01:44.229Z,96.73
2023-12-11T02:02:44.130Z,97.25
2023-12-11T02:03:44.167Z,97.25
2023-12-11T02:04:44.221Z,96.94
2023-12-11T02:05:44.182Z,96.73
2023-12-11T02:06:44.150Z,96.53
2023-12-11T02:07:44.068Z,96.64
2023-12-11T02:08:44.066Z,96.73
2023-12-11T02:09:44.072Z,97.25
2023-12-11T02:10:44.064Z,97.15
2023-12-11T02:11:46.531Z,96.84
2023-12-11T02:12:44.114Z,96.64
2023-12-11T02:13:44.015Z,96.43
2023-12-11T02:14:44.004Z,96.12
2023-12-11T02:15:44.102Z,96.12
2023-12-11T02:16:44.051Z,96.43
2023-12-11T02:17:44.013Z,96.27
2023-12-11T02:18:44.048Z,96.58
2023-12-11T02:19:44.068Z,96.89
2023-12-11T02:20:43.945Z,96.68
2023-12-11T02:21:43.944Z,96.99
2023-12-11T02:22:43.949Z,97.09
2023-12-11T02:23:43.909Z,97.09
2023-12-11T02:24:43.936Z,96.68
2023-12-11T02:25:43.888Z,96.58
2023-12-11T02:26:43.900Z,96.78
2023-12-11T02:27:43.868Z,96.78
2023-12-11T02:28:43.864Z,96.89
2023-12-11T02:29:43.853Z,97.19
2023-12-11T02:30:43.894Z,97.50
2023-12-11T02:31:43.843Z,97.19
2023-12-11T02:32:43.851Z,96.68
2023-12-11T02:33:43.902Z,96.99
2023-12-11T02:34:43.950Z,96.83
2023-12-11T02:35:43.788Z,96.83
2023-12-11T02:36:43.811Z,97.14
2023-12-11T02:37:44.221Z,97.03
2023-12-11T02:38:43.783Z,97.44
2023-12-11T02:39:43.753Z,97.24
2023-12-11T02:40:43.736Z,97.44
2023-12-11T02:41:43.722Z,97.44
2023-12-11T02:42:43.776Z,97.24
2023-12-11T02:43:43.703Z,97.24
2023-12-11T02:44:43.697Z,97.39
2023-12-11T02:45:43.738Z,97.80
2023-12-11T02:46:43.697Z,97.96
2023-12-11T02:47:43.747Z,98.06
2023-12-11T02:48:43.830Z,98.06
2023-12-11T02:49:43.648Z,98.27
2023-12-11T02:50:43.732Z,98.16
2023-12-11T02:51:43.650Z,98.27
2023-12-11T02:52:43.625Z,98.47
2023-12-11T02:53:43.602Z,98.27
2023-12-11T02:54:43.623Z,98.12
2023-12-11T02:55:43.586Z,98.02
2023-12-11T02:56:43.612Z,97.91
2023-12-11T02:57:43.613Z,97.40
2023-12-11T02:58:43.555Z,97.25
2023-12-11T02:59:43.539Z,97.05
2023-12-11T03:00:43.698Z,96.64
2023-12-11T03:01:43.557Z,96.22
2023-12-11T03:02:43.544Z,95.81
2023-12-11T03:03:43.551Z,95.92
2023-12-11T03:04:43.614Z,95.71
2023-12-11T03:05:43.581Z,95.81
2023-12-11T03:06:43.529Z,95.61
2023-12-11T03:07:43.471Z,95.50
2023-12-11T03:08:43.481Z,95.61
2023-12-11T03:09:43.472Z,95.92
2023-12-11T03:10:43.557Z,95.71
2023-12-11T03:11:43.414Z,95.61
2023-12-11T03:12:43.419Z,95.40
2023-12-11T03:13:43.430Z,95.50
2023-12-11T03:14:43.405Z,95.40
2023-12-11T03:15:43.456Z,95.30
2023-12-11T03:16:43.368Z,95.20
2023-12-11T03:17:43.399Z,95.03
2023-12-11T03:18:43.535Z,95.14
2023-12-11T03:19:43.419Z,94.93
2023-12-11T03:20:43.346Z,95.14
2023-12-11T03:21:43.364Z,95.45
2023-12-11T03:22:43.326Z,95.55
2023-12-11T03:23:43.318Z,95.34
2023-12-11T03:24:43.313Z,95.03
2023-12-11T03:25:43.277Z,95.24
2023-12-11T03:26:43.270Z,95.45
2023-12-11T03:27:43.312Z,95.75
2023-12-11T03:28:43.250Z,95.55
2023-12-11T03:29:43.243Z,95.34
2023-12-11T03:30:43.271Z,95.39
2023-12-11T03:31:43.221Z,95.70
2023-12-11T03:32:43.212Z,95.90
2023-12-11T03:33:43.268Z,95.90
2023-12-11T03:34:43.230Z,95.90
2023-12-11T03:35:43.179Z,96.00
2023-12-11T03:36:43.182Z,96.21
2023-12-11T03:37:43.152Z,96.31
2023-12-11T03:38:43.143Z,96.42
2023-12-11T03:39:43.663Z,96.62
2023-12-11T03:40:43.152Z,96.83
2023-12-11T03:41:43.112Z,96.83
2023-12-11T03:42:44.909Z,96.72
2023-12-11T03:43:43.095Z,96.72
2023-12-11T03:44:43.105Z,96.62
2023-12-11T03:45:43.116Z,96.52
2023-12-11T03:46:43.073Z,96.62
2023-12-11T03:47:43.049Z,96.31
2023-12-11T03:48:43.161Z,96.11
2023-12-11T03:49:43.133Z,96.11
2023-12-11T03:50:43.071Z,96.31
2023-12-11T03:51:43.042Z,96.62
2023-12-11T03:52:43.010Z,96.72
2023-12-11T03:53:42.983Z,96.93
2023-12-11T03:54:43.008Z,97.14
2023-12-11T03:55:42.967Z,96.93
2023-12-11T03:56:43.434Z,96.78
2023-12-11T03:57:42.969Z,97.14
2023-12-11T03:58:42.944Z,97.34
2023-12-11T03:59:42.932Z,97.50
2023-12-11T04:00:43.017Z,97.30
2023-12-11T04:01:43.035Z,97.50
2023-12-11T04:02:42.944Z,97.50
2023-12-11T04:03:43.013Z,97.61
2023-12-11T04:04:42.945Z,98.43
2023-12-11T04:05:42.902Z,98.74
2023-12-11T04:06:42.901Z,98.63
2023-12-11T04:07:42.859Z,98.94
2023-12-11T04:08:42.839Z,98.79
2023-12-11T04:09:42.833Z,99.05
2023-12-11T04:10:42.820Z,99.10
2023-12-11T04:11:43.426Z,98.79
2023-12-11T04:12:42.842Z,98.79
2023-12-11T04:13:42.782Z,98.79
2023-12-11T04:14:42.795Z,99.31
2023-12-11T04:15:42.778Z,99.51
2023-12-11T04:16:42.805Z,99.51
2023-12-11T04:17:42.789Z,99.62
2023-12-11T04:18:42.848Z,99.72
2023-12-11T04:19:42.836Z,99.72
2023-12-11T04:20:42.722Z,99.82
2023-12-11T04:21:42.800Z,99.99
2023-12-11T04:22:42.716Z,99.93
2023-12-11T04:23:42.687Z,99.93
2023-12-11T04:24:42.716Z,99.99
2023-12-11T04:25:42.667Z,99.99
2023-12-11T04:26:42.660Z,99.99
2023-12-11T04:27:42.686Z,99.99
2023-12-11T04:28:42.639Z,99.99
2023-12-11T04:29:42.624Z,99.99
2023-12-11T04:30:42.672Z,99.99
2023-12-11T04:31:42.601Z,99.99
2023-12-11T04:32:42.685Z,99.99
2023-12-11T04:33:42.776Z,99.99
2023-12-11T04:34:42.655Z,99.99
2023-12-11T04:35:42.564Z,99.99
2023-12-11T04:36:42.638Z,99.99
2023-12-11T04:37:42.573Z,99.99
2023-12-11T04:38:42.551Z,99.99
2023-12-11T04:39:42.518Z,99.99
2023-12-11T04:40:42.515Z,99.99
2023-12-11T04:41:42.501Z,99.99
2023-12-11T04:42:42.503Z,99.99
2023-12-11T04:43:42.508Z,99.99
2023-12-11T04:44:42.469Z,99.99
2023-12-11T04:45:42.471Z,99.99
2023-12-11T04:46:42.454Z,99.99
2023-12-11T04:47:42.470Z,99.99
2023-12-11T04:48:42.494Z,99.99
2023-12-11T04:49:42.561Z,99.99
2023-12-11T04:50:42.424Z,99.99
2023-12-11T04:51:42.424Z,99.99
2023-12-11T04:52:42.407Z,99.99
2023-12-11T04:53:42.375Z,99.99
2023-12-11T04:54:42.456Z,99.99
2023-12-11T04:55:42.482Z,99.99
2023-12-11T04:56:42.348Z,99.99
2023-12-11T04:57:42.345Z,99.99
2023-12-11T04:58:42.320Z,99.99
2023-12-11T04:59:44.285Z,99.99
2023-12-11T05:00:42.421Z,99.99
2023-12-11T05:01:42.368Z,99.99
2023-12-11T05:02:42.346Z,99.99
2023-12-11T05:03:42.275Z,99.99
2023-12-11T05:04:42.376Z,99.99
2023-12-11T05:05:42.274Z,99.99
2023-12-11T05:06:42.293Z,99.99
2023-12-11T05:07:42.224Z,99.99
2023-12-11T05:08:42.322Z,99.99
2023-12-11T05:09:42.274Z,99.99
2023-12-11T05:10:42.265Z,99.99
2023-12-11T05:11:42.339Z,99.99
2023-12-11T05:12:42.285Z,99.99
2023-12-11T05:13:42.217Z,99.99
2023-12-11T05:14:42.162Z,99.99
2023-12-11T05:15:42.258Z,99.99
2023-12-11T05:16:42.273Z,99.99
2023-12-11T05:17:42.304Z,99.99
2023-12-11T05:18:42.304Z,99.99
2023-12-11T05:19:42.227Z,99.99
2023-12-11T05:20:42.121Z,99.99
2023-12-11T05:21:42.118Z,99.99
2023-12-11T05:22:42.104Z,99.99
2023-12-11T05:23:42.086Z,99.99
2023-12-11T05:24:42.091Z,99.99
2023-12-11T05:25:42.060Z,99.99
2023-12-11T05:26:42.055Z,99.99
2023-12-11T05:27:42.119Z,99.99
2023-12-11T05:28:42.017Z,99.93
2023-12-11T05:29:41.999Z,99.82
2023-12-11T05:30:42.050Z,99.72
2023-12-11T05:31:41.979Z,99.82
2023-12-11T05:32:42.038Z,99.51
2023-12-11T05:33:42.075Z,99.62
2023-12-11T05:34:42.032Z,99.51
2023-12-11T05:35:41.965Z,99.51
2023-12-11T05:36:42.002Z,99.41
2023-12-11T05:37:41.926Z,99.31
2023-12-11T05:38:41.927Z,99.31
2023-12-11T05:39:47.342Z,99.10
2023-12-11T05:40:41.955Z,98.90
2023-12-11T05:41:41.888Z,99.00
2023-12-11T05:42:41.912Z,99.21
2023-12-11T05:43:41.902Z,99.31
2023-12-11T05:44:41.848Z,99.77
2023-12-11T05:45:41.874Z,99.51
2023-12-11T05:46:41.851Z,99.31
2023-12-11T05:47:41.837Z,99.10
2023-12-11T05:48:42.042Z,99.21
2023-12-11T05:49:41.915Z,99.41
2023-12-11T05:50:41.856Z,99.31
2023-12-11T05:51:41.802Z,99.31
2023-12-11T05:52:41.798Z,99.10
2023-12-11T05:53:41.797Z,99.10
2023-12-11T05:54:41.813Z,99.31
2023-12-11T05:55:41.757Z,99.41
2023-12-11T05:56:41.767Z,99.31
2023-12-11T05:57:41.768Z,99.31
2023-12-11T05:58:41.701Z,99.51
2023-12-11T05:59:41.707Z,99.41
2023-12-11T06:00:43.269Z,99.31
2023-12-11T06:01:41.773Z,99.41
2023-12-11T06:02:41.743Z,99.21
2023-12-11T06:03:41.684Z,98.90
2023-12-11T06:04:41.647Z,98.54
2023-12-11T06:05:41.798Z,98.24
2023-12-11T06:06:41.673Z,98.49
2023-12-11T06:07:41.655Z,98.38
2023-12-11T06:08:41.627Z,98.33
2023-12-11T06:09:41.707Z,98.33
2023-12-11T06:10:41.595Z,98.44
2023-12-11T06:11:41.654Z,98.44
2023-12-11T06:12:41.594Z,98.03
2023-12-11T06:13:41.579Z,97.82
2023-12-11T06:14:43.881Z,98.03
2023-12-11T06:15:41.619Z,98.03
2023-12-11T06:16:41.536Z,97.72
2023-12-11T06:17:41.656Z,97.62
2023-12-11T06:18:41.585Z,97.62
2023-12-11T06:19:41.540Z,97.72
2023-12-11T06:20:41.515Z,97.72
2023-12-11T06:21:41.510Z,97.72
2023-12-11T06:22:41.468Z,97.72
2023-12-11T06:23:41.462Z,97.62
2023-12-11T06:24:42.112Z,97.41
2023-12-11T06:25:41.476Z,97.20
2023-12-11T06:26:41.433Z,97.20
2023-12-11T06:27:41.434Z,97.31
2023-12-11T06:28:41.423Z,97.20
2023-12-11T06:29:41.434Z,97.31
2023-12-11T06:30:41.460Z,97.06
2023-12-11T06:31:41.387Z,97.00
2023-12-11T06:32:41.394Z,97.20
2023-12-11T06:33:41.426Z,97.10
2023-12-11T06:34:41.434Z,97.20
2023-12-11T06:35:41.402Z,96.90
2023-12-11T06:36:41.355Z,97.00
2023-12-11T06:37:41.326Z,97.10
2023-12-11T06:38:41.304Z,97.00
2023-12-11T06:39:41.307Z,96.80
2023-12-11T06:40:41.288Z,96.90
2023-12-11T06:41:41.296Z,96.59
2023-12-11T06:42:41.334Z,96.90
2023-12-11T06:43:41.213Z,96.75
2023-12-11T06:44:41.203Z,96.80
2023-12-11T06:45:41.236Z,96.90
2023-12-11T06:46:41.212Z,96.59
2023-12-11T06:47:41.168Z,96.69
2023-12-11T06:48:41.297Z,96.69
2023-12-11T06:49:41.272Z,96.34
2023-12-11T06:50:41.184Z,96.23
2023-12-11T06:51:41.242Z,96.34
2023-12-11T06:52:41.164Z,96.14
2023-12-11T06:53:41.117Z,95.93
2023-12-11T06:54:41.138Z,95.93
2023-12-11T06:55:41.111Z,96.23
2023-12-11T06:56:41.109Z,95.72
2023-12-11T06:57:41.175Z,96.03
2023-12-11T06:58:41.071Z,95.93
2023-12-11T06:59:41.058Z,95.83
2023-12-11T07:00:41.274Z,95.52
2023-12-11T07:01:41.472Z,95.72
2023-12-11T07:02:41.117Z,95.21
2023-12-11T07:03:41.190Z,95.52
2023-12-11T07:04:41.082Z,95.52
2023-12-11T07:05:41.126Z,95.31
2023-12-11T07:06:41.111Z,94.90
2023-12-11T07:07:41.013Z,95.01
2023-12-11T07:08:40.944Z,94.70
2023-12-11T07:09:41.018Z,94.70
2023-12-11T07:10:40.934Z,95.21
2023-12-11T07:11:40.947Z,95.06
2023-12-11T07:12:41.003Z,94.85
2023-12-11T07:13:41.184Z,94.34
2023-12-11T07:14:40.893Z,94.55
2023-12-11T07:15:41.049Z,94.96
2023-12-11T07:16:41.062Z,94.65
2023-12-11T07:17:41.186Z,94.65
2023-12-11T07:18:41.215Z,95.17
2023-12-11T07:19:41.014Z,95.27
2023-12-11T07:20:40.864Z,95.01
2023-12-11T07:21:40.848Z,95.31
2023-12-11T07:22:40.806Z,95.68
2023-12-11T07:23:41.118Z,95.93
2023-12-11T07:24:40.829Z,95.93
2023-12-11T07:25:40.858Z,96.34
2023-12-11T07:26:40.779Z,96.34
2023-12-11T07:27:40.788Z,96.65
2023-12-11T07:28:40.756Z,96.75
2023-12-11T07:29:40.740Z,96.95
2023-12-11T07:30:40.782Z,96.85
2023-12-11T07:31:40.717Z,96.95
2023-12-11T07:32:40.715Z,96.95
2023-12-11T07:33:40.825Z,96.65
2023-12-11T07:34:40.798Z,96.65
2023-12-11T07:35:40.678Z,96.65
2023-12-11T07:36:40.714Z,96.65
2023-12-11T07:37:40.666Z,96.40
2023-12-11T07:38:40.691Z,96.03
2023-12-11T07:39:40.652Z,96.44
2023-12-11T07:40:40.624Z,96.23
2023-12-11T07:41:40.615Z,96.14
2023-12-11T07:42:40.632Z,96.14
2023-12-11T07:43:40.621Z,96.30
2023-12-11T07:44:40.597Z,95.98
2023-12-11T07:45:40.624Z,96.09
2023-12-11T07:46:42.774Z,96.19
2023-12-11T07:47:40.655Z,95.57
2023-12-11T07:48:40.695Z,95.47
2023-12-11T07:49:40.622Z,94.85
2023-12-11T07:50:40.517Z,94.85
2023-12-11T07:51:40.552Z,94.76
2023-12-11T07:52:40.501Z,95.06
2023-12-11T07:53:40.494Z,94.85
2023-12-11T07:54:40.541Z,94.76
2023-12-11T07:55:40.527Z,94.85
2023-12-11T07:56:40.461Z,94.96
2023-12-11T07:57:40.488Z,94.76
2023-12-11T07:58:40.441Z,94.14
2023-12-11T07:59:40.430Z,94.40
2023-12-11T08:00:40.437Z,94.61
2023-12-11T08:01:40.596Z,94.40
2023-12-11T08:02:40.401Z,94.51
2023-12-11T08:03:40.462Z,94.51
2023-12-11T08:04:40.552Z,94.45
2023-12-11T08:05:40.394Z,94.61
2023-12-11T08:06:40.371Z,94.40
2023-12-11T08:07:40.371Z,94.40
2023-12-11T08:08:40.334Z,94.30
2023-12-11T08:09:40.374Z,93.99
2023-12-11T08:10:40.369Z,93.89
2023-12-11T08:11:40.343Z,93.79
2023-12-11T08:12:40.353Z,94.20
2023-12-11T08:13:40.296Z,93.99
2023-12-11T08:14:40.279Z,93.68
2023-12-11T08:15:40.297Z,93.48
2023-12-11T08:16:40.259Z,93.89
2023-12-11T08:17:40.280Z,93.68
2023-12-11T08:18:40.297Z,93.59
2023-12-11T08:19:40.333Z,93.59
2023-12-11T08:20:40.220Z,93.38
2023-12-11T08:21:40.222Z,93.79
2023-12-11T08:22:40.192Z,93.07
2023-12-11T08:23:40.546Z,93.48
2023-12-11T08:24:40.186Z,93.48
2023-12-11T08:25:40.173Z,93.59
2023-12-11T08:26:40.193Z,93.17
2023-12-11T08:27:40.184Z,93.48
2023-12-11T08:28:40.134Z,93.59
2023-12-11T08:29:40.145Z,93.38
2023-12-11T08:30:40.165Z,93.27
2023-12-11T08:31:40.116Z,93.17
2023-12-11T08:32:40.295Z,93.17
2023-12-11T08:33:40.166Z,92.97
2023-12-11T08:34:40.206Z,93.27
2023-12-11T08:35:40.070Z,92.82
2023-12-11T08:36:40.069Z,93.44
2023-12-11T08:37:40.064Z,93.23
2023-12-11T08:38:40.036Z,92.93
2023-12-11T08:39:40.081Z,92.51
2023-12-11T08:40:40.024Z,92.41
2023-12-11T08:41:40.009Z,92.31
2023-12-11T08:42:41.549Z,92.31
2023-12-11T08:43:39.986Z,92.41
2023-12-11T08:44:39.977Z,92.41
2023-12-11T08:45:40.024Z,92.21
2023-12-11T08:46:39.948Z,92.82
2023-12-11T08:47:40.537Z,92.93
2023-12-11T08:48:40.024Z,92.93
2023-12-11T08:49:40.047Z,92.72
2023-12-11T08:50:39.924Z,92.31
2023-12-11T08:51:39.941Z,93.02
2023-12-11T08:52:39.891Z,92.51
2023-12-11T08:53:39.888Z,93.02
2023-12-11T08:54:39.894Z,93.54
2023-12-11T08:55:39.887Z,92.61
2023-12-11T08:56:39.845Z,93.33
2023-12-11T08:57:39.866Z,93.02
2023-12-11T08:58:39.849Z,93.02
2023-12-11T08:59:39.830Z,93.27
2023-12-11T09:00:39.912Z,92.86
2023-12-11T09:01:39.908Z,93.13
2023-12-11T09:02:39.814Z,93.44
2023-12-11T09:03:39.841Z,93.23
2023-12-11T09:04:39.829Z,92.72
2023-12-11T09:05:39.816Z,92.82
2023-12-11T09:06:39.764Z,93.23
2023-12-11T09:07:39.757Z,93.02
2023-12-11T09:08:39.742Z,93.44
2023-12-11T09:09:39.782Z,93.85
2023-12-11T09:10:39.713Z,93.64
2023-12-11T09:11:39.789Z,93.85
2023-12-11T09:12:39.761Z,93.85
2023-12-11T09:13:39.679Z,93.95
2023-12-11T09:14:39.674Z,93.44
2023-12-11T09:15:39.777Z,94.05
2023-12-11T09:16:39.656Z,93.74
2023-12-11T09:17:39.655Z,93.70
2023-12-11T09:18:39.808Z,93.33
2023-12-11T09:19:44.798Z,93.64
2023-12-11T09:20:39.708Z,94.26
2023-12-11T09:21:39.646Z,94.05
2023-12-11T09:22:39.580Z,94.26
2023-12-11T09:23:39.587Z,94.05
2023-12-11T09:24:39.599Z,93.95
2023-12-11T09:25:39.571Z,93.74
2023-12-11T09:26:39.547Z,94.15
2023-12-11T09:27:39.574Z,94.11
2023-12-11T09:28:48.260Z,93.70
2023-12-11T09:29:39.524Z,93.90
2023-12-11T09:30:39.580Z,93.60
2023-12-11T09:31:39.502Z,93.39
2023-12-11T09:32:39.598Z,92.88
2023-12-11T09:33:39.606Z,92.68
2023-12-11T09:34:39.618Z,93.19
2023-12-11T09:35:39.498Z,93.08
2023-12-11T09:36:39.474Z,92.88
2023-12-11T09:37:39.453Z,93.04
2023-12-11T09:38:39.420Z,92.32
2023-12-11T09:39:39.459Z,91.65
2023-12-11T09:40:39.392Z,91.82
2023-12-11T09:41:39.391Z,92.02
2023-12-11T09:42:39.469Z,91.50
2023-12-11T09:43:39.405Z,90.99
2023-12-11T09:44:39.428Z,91.20
2023-12-11T09:45:39.395Z,91.36
2023-12-11T09:46:39.329Z,90.84
2023-12-11T09:47:39.372Z,90.54
2023-12-11T09:48:39.537Z,90.23
2023-12-11T09:49:39.521Z,89.62
2023-12-11T09:50:39.477Z,89.83
2023-12-11T09:51:39.353Z,89.51
2023-12-11T09:52:39.275Z,88.90
2023-12-11T09:53:39.274Z,88.59
2023-12-11T09:54:39.284Z,88.49
2023-12-11T09:55:39.245Z,88.49
2023-12-11T09:56:39.241Z,87.88
2023-12-11T09:57:39.261Z,88.08
2023-12-11T09:58:39.229Z,88.29
2023-12-11T09:59:39.196Z,86.96
2023-12-11T10:00:39.237Z,87.43
2023-12-11T10:01:39.233Z,87.73
2023-12-11T10:02:39.240Z,87.12
2023-12-11T10:03:39.314Z,86.61
2023-12-11T10:04:39.146Z,86.40
2023-12-11T10:05:39.206Z,86.51
2023-12-11T10:06:39.143Z,86.30
2023-12-11T10:07:39.122Z,86.20
2023-12-11T10:08:39.145Z,85.69
2023-12-11T10:09:39.133Z,85.58
2023-12-11T10:10:39.103Z,85.79
2023-12-11T10:11:39.067Z,85.96
2023-12-11T10:12:39.104Z,85.64
2023-12-11T10:13:39.117Z,86.10
2023-12-11T10:14:39.060Z,85.24
2023-12-11T10:15:39.071Z,84.97
2023-12-11T10:16:39.018Z,84.56
2023-12-11T10:17:39.076Z,84.66
2023-12-11T10:18:39.169Z,85.55
2023-12-11T10:19:39.134Z,85.14
2023-12-11T10:20:39.315Z,84.42
2023-12-11T10:21:39.073Z,85.14
2023-12-11T10:22:38.967Z,85.03
2023-12-11T10:23:38.966Z,84.52
2023-12-11T10:24:38.985Z,84.11
2023-12-11T10:25:38.974Z,84.31
2023-12-11T10:26:38.948Z,84.31
2023-12-11T10:27:38.970Z,83.76
2023-12-11T10:28:38.901Z,82.95
2023-12-11T10:29:38.911Z,83.50
2023-12-11T10:30:38.931Z,82.57
2023-12-11T10:31:38.868Z,83.50
2023-12-11T10:32:38.913Z,83.76
2023-12-11T10:33:38.999Z,83.15
2023-12-11T10:34:38.936Z,83.05
2023-12-11T10:35:38.881Z,82.54
2023-12-11T10:36:38.871Z,83.15
2023-12-11T10:37:38.794Z,82.43
2023-12-11T10:38:38.801Z,83.25
2023-12-11T10:39:38.828Z,82.43
2023-12-11T10:40:38.814Z,82.64
2023-12-11T10:41:38.767Z,81.72
2023-12-11T10:42:38.779Z,82.54
2023-12-11T10:43:50.744Z,82.54
2023-12-11T10:44:46.873Z,82.84
2023-12-11T10:45:38.774Z,82.34
2023-12-11T10:46:38.767Z,82.43
2023-12-11T10:47:38.711Z,82.54
2023-12-11T10:48:38.878Z,81.72
2023-12-11T10:49:38.714Z,82.54
2023-12-11T10:50:38.707Z,83.32
2023-12-11T10:51:38.681Z,81.58
2023-12-11T10:52:38.710Z,82.50
2023-12-11T10:53:38.642Z,82.70
2023-12-11T10:54:38.709Z,82.43
2023-12-11T10:55:38.804Z,82.84
2023-12-11T10:56:38.733Z,82.84
2023-12-11T10:57:38.840Z,83.76
2023-12-11T10:58:38.594Z,84.69
2023-12-11T10:59:38.570Z,85.20
2023-12-11T11:00:38.598Z,85.20
2023-12-11T11:01:38.725Z,85.81
2023-12-11T11:02:38.586Z,86.02
2023-12-11T11:03:38.582Z,85.61
2023-12-11T11:04:38.528Z,86.02
2023-12-11T11:05:38.593Z,85.81
2023-12-11T11:06:38.570Z,86.12
2023-12-11T11:07:38.487Z,85.61
2023-12-11T11:08:38.502Z,84.07
2023-12-11T11:09:38.500Z,85.50
2023-12-11T11:10:38.458Z,84.58
2023-12-11T11:11:38.454Z,84.69
2023-12-11T11:12:38.484Z,84.79
2023-12-11T11:13:38.424Z,86.43
2023-12-11T11:14:38.417Z,85.61
2023-12-11T11:15:38.411Z,85.91
2023-12-11T11:16:38.394Z,86.43
2023-12-11T11:17:38.419Z,87.24
2023-12-11T11:18:38.457Z,86.83
2023-12-11T11:19:38.464Z,88.98
2023-12-11T11:20:38.374Z,88.47
2023-12-11T11:21:38.526Z,87.76
2023-12-11T11:22:41.122Z,87.65
2023-12-11T11:23:38.354Z,87.14
2023-12-11T11:24:38.449Z,87.35
2023-12-11T11:25:38.660Z,86.94
2023-12-11T11:26:38.291Z,87.04
2023-12-11T11:27:38.313Z,86.79
2023-12-11T11:28:38.395Z,85.97
2023-12-11T11:29:38.256Z,85.71
2023-12-11T11:30:38.418Z,85.61
2023-12-11T11:31:38.257Z,86.53
2023-12-11T11:32:38.258Z,86.49
2023-12-11T11:33:38.301Z,85.97
2023-12-11T11:34:38.824Z,85.06
2023-12-11T11:35:38.188Z,86.08
2023-12-11T11:36:38.234Z,86.49
2023-12-11T11:37:38.243Z,85.06
2023-12-11T11:38:38.163Z,86.29
2023-12-11T11:39:41.089Z,86.49
2023-12-11T11:40:38.317Z,86.18
2023-12-11T11:41:38.218Z,86.22
2023-12-11T11:42:38.280Z,87.65
2023-12-11T11:43:38.114Z,86.53
2023-12-11T11:44:38.140Z,86.63
2023-12-11T11:45:38.225Z,86.63
2023-12-11T11:46:38.088Z,87.14
2023-12-11T11:47:38.650Z,87.55
2023-12-11T11:48:38.125Z,88.88
2023-12-11T11:49:38.111Z,89.12
2023-12-11T11:50:38.065Z,90.36
2023-12-11T11:51:38.023Z,89.64
2023-12-11T11:52:38.022Z,90.15
2023-12-11T11:53:38.001Z,90.41
2023-12-11T11:54:38.021Z,88.71
2023-12-11T11:55:38.055Z,89.50
2023-12-11T11:56:37.982Z,89.90
2023-12-11T11:57:38.038Z,89.18
2023-12-11T11:58:37.958Z,88.17
2023-12-11T11:59:37.937Z,88.37
2023-12-11T12:00:37.983Z,88.47
2023-12-11T12:01:38.034Z,88.68
2023-12-11T12:02:37.931Z,88.78
2023-12-11T12:03:37.936Z,88.26
2023-12-11T12:04:37.933Z,87.85
2023-12-11T12:05:38.097Z,87.00
2023-12-11T12:06:37.875Z,85.81
2023-12-11T12:07:37.855Z,86.02
2023-12-11T12:08:37.859Z,84.99
2023-12-11T12:09:37.838Z,85.97
2023-12-11T12:10:37.855Z,86.59
2023-12-11T12:11:37.818Z,86.49
2023-12-11T12:12:37.812Z,85.26
2023-12-11T12:13:37.988Z,86.59
2023-12-11T12:14:37.829Z,85.32
2023-12-11T12:15:37.777Z,84.20
2023-12-11T12:16:37.797Z,84.71
2023-12-11T12:17:38.150Z,84.09
2023-12-11T12:18:37.867Z,84.14
2023-12-11T12:19:37.743Z,84.09
2023-12-11T12:20:37.792Z,84.95
2023-12-11T12:21:37.709Z,84.09
2023-12-11T12:22:37.781Z,84.91
2023-12-11T12:23:37.690Z,85.12
2023-12-11T12:24:37.693Z,85.94
2023-12-11T12:25:37.683Z,85.22
2023-12-11T12:26:37.666Z,84.91
2023-12-11T12:27:37.681Z,85.28
2023-12-11T12:28:37.660Z,85.38
2023-12-11T12:29:37.633Z,86.16
2023-12-11T12:30:37.632Z,84.36
2023-12-11T12:31:37.608Z,84.63
2023-12-11T12:32:37.728Z,84.63
2023-12-11T12:33:37.659Z,85.65
2023-12-11T12:34:37.664Z,85.75
2023-12-11T12:35:37.615Z,85.49
2023-12-11T12:36:37.584Z,85.08
2023-12-11T12:37:37.579Z,84.98
2023-12-11T12:38:37.578Z,85.59
2023-12-11T12:39:37.531Z,86.20
2023-12-11T12:40:37.569Z,85.28
2023-12-11T12:41:37.508Z,85.49
2023-12-11T12:42:37.518Z,84.26
2023-12-11T12:43:37.482Z,86.00
2023-12-11T12:44:37.632Z,86.00
2023-12-11T12:45:37.518Z,85.79
2023-12-11T12:46:37.486Z,86.82
2023-12-11T12:47:37.656Z,86.00
2023-12-11T12:48:37.479Z,85.38
2023-12-11T12:49:38.005Z,85.42
2023-12-11T12:50:37.436Z,84.30
2023-12-11T12:51:37.403Z,83.38
2023-12-11T12:52:37.400Z,82.46